Terminal Aerodrome Forecast
Issued by NWS

Home | Current Version | Previous Version | Text Only | Print | Product List | Glossary On
Versions: 1 2 3 4 5 6 7 8 9 10 11 12 13 14 15 16 17
957
FTUS43 KAPX 010520
TAFPLN
TAF
KPLN 010520Z 0106/0206 04004KT P6SM SCT060 OVC120
     FM011400 05007KT P6SM SCT040 OVC080
     FM020000 VRB02KT P6SM BKN120=

USA.gov is the U.S. government's official web portal to all federal, state and local government web resources and services.